createdAt,value
2023-04-28T00:00:54.260Z,22.47
2023-04-28T00:03:42.911Z,25.13
2023-04-28T00:06:32.010Z,32.43
2023-04-28T00:09:20.697Z,23.00
2023-04-28T00:12:09.059Z,24.37
2023-04-28T00:14:58.809Z,23.43
2023-04-28T00:17:47.352Z,23.17
2023-04-28T00:20:35.758Z,23.17
2023-04-28T00:23:24.173Z,24.07
2023-04-28T00:26:12.619Z,24.50
2023-04-28T00:29:02.988Z,23.00
2023-04-28T00:31:52.861Z,22.73
2023-04-28T00:34:41.724Z,23.70
2023-04-28T00:37:30.100Z,22.57
2023-04-28T00:40:18.558Z,24.50
2023-04-28T00:43:07.092Z,23.60
2023-04-28T00:45:55.673Z,23.57
2023-04-28T00:48:45.458Z,22.90
2023-04-28T00:51:34.422Z,23.70
2023-04-28T00:54:22.965Z,23.37
2023-04-28T00:57:11.587Z,21.90
2023-04-28T00:59:59.969Z,23.80
2023-04-28T01:02:48.492Z,23.07
2023-04-28T01:05:41.289Z,22.17
2023-04-28T01:08:29.794Z,22.40
2023-04-28T01:11:18.809Z,22.33
2023-04-28T01:14:42.337Z,23.47
2023-04-28T01:17:30.915Z,22.60
2023-04-28T01:20:19.572Z,22.97
2023-04-28T01:23:13.275Z,22.57
2023-04-28T01:26:03.476Z,23.30
2023-04-28T01:28:51.913Z,22.93
2023-04-28T01:31:41.299Z,22.97
2023-04-28T01:34:29.806Z,25.43
2023-04-28T01:37:18.243Z,23.80
2023-04-28T01:40:08.135Z,22.40
2023-04-28T01:42:57.877Z,22.83
2023-04-28T01:45:46.266Z,22.60
2023-04-28T01:48:34.660Z,22.67
2023-04-28T01:51:23.066Z,24.47
2023-04-28T01:54:11.418Z,23.27
2023-04-28T01:57:02.453Z,22.00
2023-04-28T01:59:53.587Z,24.13
2023-04-28T02:02:42.189Z,23.77
2023-04-28T02:05:30.655Z,23.40
2023-04-28T02:08:18.970Z,24.00
2023-04-28T02:11:07.384Z,26.40
2023-04-28T02:13:56.078Z,23.57
2023-04-28T02:16:45.831Z,22.87
2023-04-28T02:19:34.194Z,23.40
2023-04-28T02:22:22.568Z,24.27
2023-04-28T02:25:11.212Z,28.50
2023-04-28T02:28:00.327Z,22.90
2023-04-28T02:30:48.771Z,27.80
2023-04-28T02:33:39.888Z,22.90
2023-04-28T02:36:28.828Z,22.77
2023-04-28T02:39:17.255Z,22.90
2023-04-28T02:42:05.790Z,22.60
2023-04-28T02:44:54.137Z,24.00
2023-04-28T02:47:42.834Z,22.17
2023-04-28T02:50:32.616Z,23.40
2023-04-28T02:53:21.249Z,23.77
2023-04-28T02:56:10.066Z,23.33
2023-04-28T02:58:58.617Z,23.17
2023-04-28T03:01:47.296Z,23.20
2023-04-28T03:04:35.887Z,23.40
2023-04-28T03:07:25.679Z,24.17
2023-04-28T03:10:14.873Z,26.37
2023-04-28T03:13:03.478Z,23.87
2023-04-28T03:15:52.565Z,24.37
2023-04-28T03:18:40.983Z,24.13
2023-04-28T03:21:29.746Z,26.47
2023-04-28T03:24:19.507Z,23.63
2023-04-28T03:27:08.019Z,23.80
2023-04-28T03:29:58.344Z,23.70
2023-04-28T03:32:46.734Z,23.87
2023-04-28T03:35:35.188Z,23.27
2023-04-28T03:38:23.597Z,23.77
2023-04-28T03:41:13.622Z,24.90
2023-04-28T03:44:23.483Z,22.40
2023-04-28T03:47:13.592Z,23.20
2023-04-28T03:50:02.271Z,22.90
2023-04-28T03:52:50.870Z,26.30
2023-04-28T03:55:39.813Z,22.57
2023-04-28T03:58:29.542Z,25.67
2023-04-28T04:01:17.957Z,23.87
2023-04-28T04:04:07.084Z,23.70
2023-04-28T04:06:56.094Z,24.13
2023-04-28T04:09:45.057Z,23.30
2023-04-28T04:12:33.424Z,23.50
2023-04-28T04:15:23.219Z,22.70
2023-04-28T04:18:11.822Z,24.60
2023-04-28T04:21:20.209Z,24.50
2023-04-28T04:24:10.779Z,23.50
2023-04-28T04:26:59.698Z,23.57
2023-04-28T04:29:55.313Z,24.00
2023-04-28T04:32:45.103Z,24.23
2023-04-28T04:35:33.856Z,27.27
2023-04-28T04:38:22.229Z,25.23
2023-04-28T04:41:10.635Z,23.97
2023-04-28T04:43:59.001Z,22.80
2023-04-28T04:46:52.313Z,23.17
2023-04-28T04:49:42.615Z,23.40
2023-04-28T04:52:31.138Z,23.77
2023-04-28T04:55:19.917Z,24.00
2023-04-28T04:58:08.482Z,23.20
2023-04-28T05:01:05.789Z,24.07
2023-04-28T05:03:54.557Z,29.60
2023-04-28T05:06:45.083Z,24.10
2023-04-28T05:09:34.874Z,23.53
2023-04-28T05:12:23.251Z,24.57
2023-04-28T05:15:12.526Z,24.27
2023-04-28T05:18:11.037Z,23.90
2023-04-28T05:20:59.565Z,24.10
2023-04-28T05:23:50.037Z,23.80
2023-04-28T05:26:38.483Z,30.60
2023-04-28T05:29:30.523Z,24.60
2023-04-28T05:32:18.934Z,24.37
2023-04-28T05:35:08.123Z,24.70
2023-04-28T05:37:56.673Z,25.10
2023-04-28T05:40:46.448Z,24.70
2023-04-28T05:43:34.937Z,26.73
2023-04-28T05:46:30.801Z,25.10
2023-04-28T05:49:21.153Z,24.40
2023-04-28T05:52:09.552Z,23.77
2023-04-28T05:54:58.156Z,25.17
2023-04-28T05:57:53.171Z,24.67
2023-04-28T06:00:42.096Z,24.60
2023-04-28T06:03:30.661Z,25.27
2023-04-28T06:06:19.209Z,25.57
2023-04-28T06:09:07.919Z,24.30
2023-04-28T06:11:56.424Z,25.47
2023-04-28T06:14:46.333Z,25.10
2023-04-28T06:17:35.167Z,24.17
2023-04-28T06:20:23.574Z,24.80
2023-04-28T06:23:12.020Z,25.13
2023-04-28T06:26:05.528Z,22.87
2023-04-28T06:28:53.961Z,23.17
2023-04-28T06:31:43.729Z,24.37
2023-04-28T06:34:32.871Z,27.00
2023-04-28T06:37:21.274Z,24.87
2023-04-28T06:40:10.931Z,26.10
2023-04-28T06:43:02.688Z,25.57
2023-04-28T06:46:05.120Z,25.70
2023-04-28T06:48:54.818Z,25.77
2023-04-28T06:51:43.324Z,24.87
2023-04-28T06:54:32.054Z,25.47
2023-04-28T06:57:21.133Z,25.97
2023-04-28T07:00:11.943Z,26.50
2023-04-28T07:03:00.475Z,25.47
2023-04-28T07:05:50.455Z,25.27
2023-04-28T07:08:38.809Z,25.43
2023-04-28T07:11:27.165Z,26.30
2023-04-28T07:14:15.790Z,25.97
2023-04-28T07:17:04.351Z,26.30
2023-04-28T07:19:52.752Z,25.53
2023-04-28T07:22:42.569Z,26.60
2023-04-28T07:25:31.138Z,26.27
2023-04-28T07:28:20.414Z,25.40
2023-04-28T07:31:08.876Z,26.43
2023-04-28T07:33:57.763Z,26.27
2023-04-28T07:36:46.387Z,26.47
2023-04-28T07:39:36.181Z,25.07
2023-04-28T07:42:24.640Z,27.37
2023-04-28T07:45:13.950Z,26.87
2023-04-28T07:48:02.380Z,27.17
2023-04-28T07:50:50.848Z,27.10
2023-04-28T07:53:39.194Z,25.67
2023-04-28T07:56:28.910Z,27.13
2023-04-28T07:59:17.251Z,26.17
2023-04-28T08:02:06.126Z,27.67
2023-04-28T08:04:54.727Z,27.00
2023-04-28T08:07:43.309Z,27.60
2023-04-28T08:10:31.687Z,27.40
2023-04-28T08:13:21.476Z,28.87
2023-04-28T08:16:09.921Z,27.77
2023-04-28T08:18:59.043Z,28.00
2023-04-28T08:21:47.519Z,27.53
2023-04-28T08:24:36.112Z,28.10
2023-04-28T08:27:25.807Z,28.40
2023-04-28T08:30:15.577Z,26.93
2023-04-28T08:33:04.061Z,27.60
2023-04-28T08:35:52.562Z,28.37
2023-04-28T08:38:40.974Z,27.67
2023-04-28T08:41:30.009Z,27.43
2023-04-28T08:44:18.825Z,27.23
2023-04-28T08:47:14.250Z,28.70
2023-04-28T08:50:04.917Z,29.37
2023-04-28T08:52:53.798Z,27.97
2023-04-28T08:55:42.447Z,28.37
2023-04-28T08:58:30.811Z,28.50
2023-04-28T09:01:19.237Z,29.13
2023-04-28T09:04:12.662Z,29.50
2023-04-28T09:07:02.746Z,28.77
2023-04-28T09:09:51.485Z,29.37
2023-04-28T09:12:40.002Z,30.37
2023-04-28T09:15:32.679Z,30.37
2023-04-28T09:18:22.140Z,31.40
2023-04-28T09:21:13.374Z,30.27
2023-04-28T09:24:01.809Z,30.80
2023-04-28T09:26:52.556Z,31.80
2023-04-28T09:29:53.888Z,31.57
2023-04-28T09:32:42.917Z,30.67
2023-04-28T09:35:41.001Z,31.37
2023-04-28T09:38:30.845Z,30.03
2023-04-28T09:41:19.209Z,31.67
2023-04-28T09:44:15.327Z,31.37
2023-04-28T09:47:22.261Z,30.30
2023-04-28T09:50:14.603Z,31.17
2023-04-28T09:53:04.156Z,32.40
2023-04-28T09:55:56.028Z,32.20
2023-04-28T09:58:45.684Z,31.67
2023-04-28T10:01:37.572Z,30.57
2023-04-28T10:04:27.194Z,32.20
2023-04-28T10:07:16.658Z,30.87
2023-04-28T10:10:05.575Z,30.53
2023-04-28T10:12:56.906Z,32.97
2023-04-28T10:15:46.152Z,33.13
2023-04-28T10:18:36.479Z,32.47
2023-04-28T10:21:25.403Z,31.80
2023-04-28T10:24:17.174Z,32.60
2023-04-28T10:27:08.513Z,32.07
2023-04-28T10:30:22.865Z,31.40
2023-04-28T10:33:25.602Z,32.57
2023-04-28T10:36:50.923Z,32.17
2023-04-28T10:39:39.672Z,32.40
2023-04-28T10:42:53.390Z,32.57
2023-04-28T10:46:06.460Z,32.00
2023-04-28T10:48:58.675Z,32.03
2023-04-28T10:51:47.106Z,32.80
2023-04-28T10:54:36.382Z,31.97
2023-04-28T10:57:24.771Z,33.97
2023-04-28T11:00:29.229Z,32.80
2023-04-28T11:03:47.216Z,31.33
2023-04-28T11:06:37.474Z,31.87
2023-04-28T11:09:50.213Z,33.47
2023-04-28T11:13:17.365Z,36.33
2023-04-28T11:16:06.952Z,31.77
2023-04-28T11:19:04.530Z,31.70
2023-04-28T11:21:55.039Z,33.10
2023-04-28T11:24:43.607Z,32.30
2023-04-28T11:27:33.530Z,32.57
2023-04-28T11:30:23.007Z,33.67
2023-04-28T11:33:11.524Z,32.40
2023-04-28T11:36:01.750Z,33.80
2023-04-28T11:38:50.174Z,33.30
2023-04-28T11:41:41.174Z,33.63
2023-04-28T11:44:30.708Z,32.10
2023-04-28T11:47:29.922Z,32.87
2023-04-28T11:50:18.358Z,33.03
2023-04-28T11:53:08.325Z,32.83
2023-04-28T11:56:08.060Z,32.00
2023-04-28T11:59:04.589Z,33.17
2023-04-28T12:01:54.391Z,32.57
2023-04-28T12:04:44.149Z,33.17
2023-04-28T12:07:42.314Z,33.73
2023-04-28T12:10:32.120Z,33.87
2023-04-28T12:13:20.536Z,33.03
2023-04-28T12:16:09.726Z,34.53
2023-04-28T12:19:00.264Z,34.57
2023-04-28T12:22:03.072Z,32.90
2023-04-28T12:25:05.228Z,33.33
2023-04-28T12:28:02.885Z,33.57
2023-04-28T12:30:51.636Z,34.00
2023-04-28T12:33:40.616Z,34.97
2023-04-28T12:36:29.546Z,33.70
2023-04-28T12:39:20.026Z,35.07
2023-04-28T12:42:08.565Z,33.77
2023-04-28T12:44:58.624Z,34.77
2023-04-28T12:47:47.344Z,35.53
2023-04-28T12:50:35.930Z,35.50
2023-04-28T12:53:24.366Z,34.47
2023-04-28T12:56:12.803Z,35.87
2023-04-28T12:59:02.634Z,36.70
2023-04-28T13:01:52.587Z,36.87
2023-04-28T13:04:43.052Z,35.47
2023-04-28T13:07:32.172Z,35.93
2023-04-28T13:10:22.414Z,36.90
2023-04-28T13:13:10.921Z,36.40
2023-04-28T13:15:59.424Z,35.97
2023-04-28T13:18:50.056Z,37.43
2023-04-28T13:21:39.291Z,37.07
2023-04-28T13:24:27.887Z,38.50
2023-04-28T13:27:16.294Z,39.70
2023-04-28T13:30:05.545Z,36.87
2023-04-28T13:32:55.416Z,38.77
2023-04-28T13:35:47.094Z,38.10
2023-04-28T13:38:35.681Z,39.50
2023-04-28T13:41:24.114Z,38.67
2023-04-28T13:44:12.506Z,39.10
2023-04-28T13:47:00.937Z,40.47
2023-04-28T13:49:50.396Z,39.17
2023-04-28T13:52:40.131Z,39.17
2023-04-28T13:55:28.617Z,40.00
2023-04-28T13:58:16.979Z,39.73
2023-04-28T14:01:05.614Z,38.67
2023-04-28T14:03:54.389Z,40.40
2023-04-28T14:06:42.909Z,39.03
2023-04-28T14:09:33.386Z,39.37
2023-04-28T14:12:21.785Z,39.87
2023-04-28T14:15:10.668Z,39.67
2023-04-28T14:17:59.126Z,36.97
2023-04-28T14:20:49.098Z,39.07
2023-04-28T14:23:38.440Z,38.77
2023-04-28T14:26:28.409Z,39.00
2023-04-28T14:29:16.848Z,41.10
2023-04-28T14:32:05.394Z,40.77
2023-04-28T14:34:53.824Z,39.30
2023-04-28T14:37:42.491Z,39.30
2023-04-28T14:40:31.124Z,38.97
2023-04-28T14:43:20.958Z,39.40
2023-04-28T14:46:09.364Z,39.17
2023-04-28T14:48:58.458Z,40.53
2023-04-28T14:51:47.649Z,40.83
2023-04-28T14:54:36.181Z,38.57
2023-04-28T14:57:25.070Z,41.20
2023-04-28T15:00:16.281Z,39.67
2023-04-28T15:03:05.193Z,39.37
2023-04-28T15:05:53.892Z,39.70
2023-04-28T15:08:42.327Z,39.80
2023-04-28T15:11:30.968Z,40.60
2023-04-28T15:14:19.740Z,39.00
2023-04-28T15:17:09.848Z,39.90
2023-04-28T15:19:58.377Z,40.57
2023-04-28T15:22:46.928Z,40.07
2023-04-28T15:25:35.689Z,41.57
2023-04-28T15:28:24.042Z,40.07
2023-04-28T15:31:12.472Z,39.97
2023-04-28T15:34:02.355Z,38.67
2023-04-28T15:36:53.656Z,40.00
2023-04-28T15:39:42.510Z,39.47
2023-04-28T15:42:31.350Z,39.50
2023-04-28T15:45:20.836Z,40.50
2023-04-28T15:48:10.174Z,39.00
2023-04-28T15:50:59.926Z,41.20
2023-04-28T15:53:50.684Z,39.27
2023-04-28T15:56:39.044Z,43.23
2023-04-28T15:59:27.499Z,41.47
2023-04-28T16:02:15.954Z,41.03
2023-04-28T16:05:05.153Z,39.00
2023-04-28T16:07:55.125Z,39.40
2023-04-28T16:10:44.071Z,40.10
2023-04-28T16:13:36.939Z,39.90
2023-04-28T16:16:25.742Z,39.93
2023-04-28T16:19:15.791Z,39.33
2023-04-28T16:22:04.252Z,39.07
2023-04-28T16:24:54.287Z,38.90
2023-04-28T16:27:42.691Z,40.17
2023-04-28T16:30:32.698Z,39.40
2023-04-28T16:33:21.104Z,40.73
2023-04-28T16:36:09.598Z,39.97
2023-04-28T16:38:57.965Z,39.60
2023-04-28T16:41:47.701Z,38.87
2023-04-28T16:44:36.482Z,39.80
2023-04-28T16:47:24.930Z,40.03
2023-04-28T16:50:14.896Z,41.00
2023-04-28T16:53:03.382Z,39.90
2023-04-28T16:55:51.717Z,40.30
2023-04-28T16:58:41.641Z,40.07
2023-04-28T17:01:31.725Z,39.73
2023-04-28T17:04:20.461Z,40.17
2023-04-28T17:07:09.459Z,41.87
2023-04-28T17:09:57.989Z,40.87
2023-04-28T17:12:46.399Z,40.20
2023-04-28T17:15:36.727Z,39.27
2023-04-28T17:18:26.120Z,40.97
2023-04-28T17:21:15.626Z,39.57
2023-04-28T17:24:04.187Z,40.17
2023-04-28T17:26:52.574Z,40.33
2023-04-28T17:29:41.435Z,40.00
2023-04-28T17:32:31.990Z,40.17
2023-04-28T17:35:20.610Z,39.70
2023-04-28T17:38:09.084Z,40.33
2023-04-28T17:40:57.435Z,39.40
2023-04-28T17:43:46.022Z,40.60
2023-04-28T17:46:34.470Z,39.97
2023-04-28T17:49:25.176Z,39.60
2023-04-28T17:52:15.537Z,41.73
2023-04-28T17:55:03.920Z,39.70
2023-04-28T17:57:52.401Z,40.37
2023-04-28T18:00:40.892Z,40.43
2023-04-28T18:03:29.465Z,39.97
2023-04-28T18:06:22.346Z,39.97
2023-04-28T18:09:10.755Z,40.30
2023-04-28T18:11:59.207Z,39.60
2023-04-28T18:14:47.656Z,39.40
2023-04-28T18:17:36.050Z,40.33
2023-04-28T18:20:24.622Z,39.97
2023-04-28T18:23:14.363Z,39.47
2023-04-28T18:26:02.943Z,40.40
2023-04-28T18:28:51.402Z,41.93
2023-04-28T18:31:40.163Z,40.07
2023-04-28T18:34:28.671Z,39.10
2023-04-28T18:37:17.179Z,39.80
2023-04-28T18:40:07.703Z,38.30
2023-04-28T18:42:56.391Z,38.90
2023-04-28T18:45:45.038Z,40.20
2023-04-28T18:48:34.264Z,38.70
2023-04-28T18:51:23.010Z,38.87
2023-04-28T18:54:11.515Z,39.20
2023-04-28T18:57:01.343Z,40.00
2023-04-28T18:59:50.062Z,38.13
2023-04-28T19:02:38.732Z,39.43
2023-04-28T19:05:27.308Z,39.17
2023-04-28T19:08:15.758Z,38.60
2023-04-28T19:11:04.224Z,39.70
2023-04-28T19:13:54.217Z,38.67
2023-04-28T19:16:42.762Z,40.57
2023-04-28T19:19:31.274Z,39.00
2023-04-28T19:22:33.034Z,38.57
2023-04-28T19:25:21.496Z,38.20
2023-04-28T19:28:10.856Z,38.20
2023-04-28T19:31:00.669Z,39.73
2023-04-28T19:33:49.144Z,38.87
2023-04-28T19:36:37.650Z,37.90
2023-04-28T19:39:28.665Z,43.87
2023-04-28T19:42:17.804Z,37.13
2023-04-28T19:45:07.678Z,37.70
2023-04-28T19:47:58.037Z,37.40
2023-04-28T19:50:46.679Z,37.80
2023-04-28T19:53:38.866Z,38.17
2023-04-28T19:56:27.356Z,36.67
2023-04-28T19:59:15.904Z,38.90
2023-04-28T20:02:07.792Z,37.90
2023-04-28T20:04:57.701Z,37.73
2023-04-28T20:07:46.227Z,39.30
2023-04-28T20:10:34.709Z,38.73
2023-04-28T20:13:23.278Z,37.97
2023-04-28T20:16:11.892Z,38.90
2023-04-28T20:19:00.327Z,38.70
2023-04-28T20:21:50.229Z,38.83
2023-04-28T20:24:39.533Z,38.27
2023-04-28T20:27:28.160Z,38.10
2023-04-28T20:30:16.744Z,37.80
2023-04-28T20:33:05.424Z,37.57
2023-04-28T20:35:54.012Z,38.37
2023-04-28T20:38:44.452Z,36.83
2023-04-28T20:41:33.392Z,38.53
2023-04-28T20:44:22.199Z,37.03
2023-04-28T20:47:10.984Z,38.10
2023-04-28T20:49:59.387Z,36.90
2023-04-28T20:52:47.952Z,38.60
2023-04-28T20:55:37.927Z,37.13
2023-04-28T20:58:26.504Z,37.40
2023-04-28T21:01:15.088Z,36.87
2023-04-28T21:04:03.647Z,37.57
2023-04-28T21:06:53.406Z,37.97
2023-04-28T21:09:42.218Z,37.17
2023-04-28T21:12:32.019Z,37.07
2023-04-28T21:15:20.651Z,37.10
2023-04-28T21:18:09.324Z,37.00
2023-04-28T21:20:57.741Z,36.80
2023-04-28T21:23:46.182Z,37.60
2023-04-28T21:26:34.707Z,36.70
2023-04-28T21:29:24.785Z,36.00
2023-04-28T21:32:13.348Z,37.87
2023-04-28T21:35:01.864Z,36.77
2023-04-28T21:37:50.204Z,36.90
2023-04-28T21:40:38.593Z,36.90
2023-04-28T21:43:26.992Z,37.73
2023-04-28T21:46:18.913Z,36.83
2023-04-28T21:49:07.715Z,37.10
2023-04-28T21:51:56.078Z,36.37
2023-04-28T21:54:44.474Z,36.80
2023-04-28T21:57:33.040Z,36.60
2023-04-28T22:00:22.854Z,36.80
2023-04-28T22:03:14.700Z,36.07
2023-04-28T22:06:03.502Z,36.73
2023-04-28T22:08:51.941Z,36.47
2023-04-28T22:11:40.350Z,36.17
2023-04-28T22:14:40.240Z,36.67
2023-04-28T22:17:29.625Z,37.27
2023-04-28T22:20:19.363Z,36.73
2023-04-28T22:23:08.177Z,37.40
2023-04-28T22:25:59.102Z,36.30
2023-04-28T22:28:47.530Z,37.10
2023-04-28T22:31:35.947Z,35.97
2023-04-28T22:34:24.520Z,37.00
2023-04-28T22:37:14.356Z,36.67
2023-04-28T22:40:02.750Z,35.90
2023-04-28T22:42:51.213Z,36.07
2023-04-28T22:45:39.617Z,36.07
2023-04-28T22:48:27.974Z,35.50
2023-04-28T22:51:16.917Z,36.07
2023-04-28T22:54:06.698Z,35.00
2023-04-28T22:56:55.063Z,34.30
2023-04-28T22:59:43.570Z,36.40
2023-04-28T23:02:32.089Z,35.47
2023-04-28T23:05:20.648Z,36.70
2023-04-28T23:08:09.014Z,35.80
2023-04-28T23:10:58.810Z,35.57
2023-04-28T23:13:47.185Z,36.20
2023-04-28T23:16:36.318Z,36.37
2023-04-28T23:19:24.942Z,35.60
2023-04-28T23:22:13.281Z,35.20
2023-04-28T23:25:01.780Z,35.63
2023-04-28T23:27:51.600Z,36.77
2023-04-28T23:30:40.190Z,36.47
2023-04-28T23:33:29.587Z,36.00
2023-04-28T23:36:18.564Z,38.00
2023-04-28T23:39:07.849Z,35.57
2023-04-28T23:41:56.178Z,35.60
2023-04-28T23:44:46.173Z,36.07
2023-04-28T23:47:34.610Z,35.90
2023-04-28T23:50:23.860Z,35.40
2023-04-28T23:53:12.651Z,35.67
2023-04-28T23:56:01.152Z,36.23
2023-04-28T23:58:50.173Z,36.03
